Terminal Aerodrome Forecast
Issued by NWS Duluth, MN

Home | Current Version | Previous Version | Text Only | Print | Product List | Glossary On
Versions: 1 2 3 4 5 6 7 8 9 10 11 12 13 14 15 16 17 18 19 20 21
000
FTUS43 KDLH 260600 AAA
TAFINL
TAF AMD
KINL 260635Z 2607/2706 34015G24KT P6SM SCT015 OVC030
     FM261200 35012KT P6SM BKN030
     FM261800 36010KT P6SM BKN050
     FM270000 02006KT P6SM SKC=

USA.gov is the U.S. government's official web portal to all federal, state and local government web resources and services.